Terminal Aerodrome Forecast
Issued by NWS

Home | Current Version | Previous Version | Text Only | Print | Product List | Glossary On
Versions: 1 2 3 4 5 6 7 8 9 10 11 12 13 14 15
000
FTUS46 KSTO 230531
TAFMHR
TAF
KMHR 230531Z 2306/2406 VRB03KT P6SM BKN200
     FM231300 VRB02KT 2SM BR VV002
      TEMPO 2314/2317 1/2SM FG
     FM231800 VRB04KT P6SM SCT080 BKN150
     FM232100 VRB04KT P6SM BKN080=

USA.gov is the U.S. government's official web portal to all federal, state and local government web resources and services.